createdAt,value
2022-11-18T00:00:53.926Z,981.44
2022-11-18T00:01:54.062Z,981.39
2022-11-18T00:02:53.988Z,981.43
2022-11-18T00:03:53.921Z,981.40
2022-11-18T00:04:53.905Z,981.32
2022-11-18T00:05:53.904Z,981.39
2022-11-18T00:06:53.951Z,981.37
2022-11-18T00:07:53.888Z,981.36
2022-11-18T00:08:53.877Z,981.36
2022-11-18T00:09:53.879Z,981.36
2022-11-18T00:10:53.870Z,981.37
2022-11-18T00:11:53.842Z,981.36
2022-11-18T00:12:53.858Z,981.40
2022-11-18T00:13:53.852Z,981.33
2022-11-18T00:14:53.840Z,981.32
2022-11-18T00:15:53.863Z,981.25
2022-11-18T00:16:53.868Z,981.24
2022-11-18T00:17:53.835Z,981.26
2022-11-18T00:18:53.788Z,981.27
2022-11-18T00:19:53.825Z,981.20
2022-11-18T00:20:53.781Z,981.24
2022-11-18T00:21:53.771Z,981.24
2022-11-18T00:22:53.779Z,981.20
2022-11-18T00:23:53.829Z,981.21
2022-11-18T00:24:54.006Z,981.18
2022-11-18T00:25:53.783Z,981.16
2022-11-18T00:26:53.723Z,981.18
2022-11-18T00:27:53.733Z,981.17
2022-11-18T00:28:53.716Z,981.19
2022-11-18T00:29:53.741Z,981.20
2022-11-18T00:30:53.729Z,981.17
2022-11-18T00:31:53.724Z,981.20
2022-11-18T00:32:53.706Z,981.19
2022-11-18T00:33:53.675Z,981.12
2022-11-18T00:34:53.673Z,981.21
2022-11-18T00:35:53.688Z,981.19
2022-11-18T00:36:53.681Z,981.20
2022-11-18T00:37:53.672Z,981.15
2022-11-18T00:38:53.638Z,981.11
2022-11-18T00:39:53.672Z,981.16
2022-11-18T00:40:53.686Z,981.15
2022-11-18T00:41:53.660Z,981.17
2022-11-18T00:42:53.625Z,981.20
2022-11-18T00:43:53.627Z,981.15
2022-11-18T00:44:53.611Z,981.16
2022-11-18T00:45:53.588Z,981.18
2022-11-18T00:46:53.603Z,981.18
2022-11-18T00:47:53.593Z,981.21
2022-11-18T00:48:53.578Z,981.16
2022-11-18T00:49:53.565Z,981.19
2022-11-18T00:50:53.568Z,981.14
2022-11-18T00:51:53.580Z,981.14
2022-11-18T00:52:53.603Z,981.15
2022-11-18T00:53:53.526Z,981.11
2022-11-18T00:54:54.541Z,981.18
2022-11-18T00:55:53.588Z,981.17
2022-11-18T00:56:53.526Z,981.16
2022-11-18T00:57:53.589Z,981.21
2022-11-18T00:58:53.536Z,981.13
2022-11-18T00:59:53.519Z,981.18
2022-11-18T01:00:53.528Z,981.18
2022-11-18T01:01:53.565Z,981.21
2022-11-18T01:02:53.463Z,981.23
2022-11-18T01:03:53.475Z,981.26
2022-11-18T01:04:53.452Z,981.19
2022-11-18T01:05:53.467Z,981.29
2022-11-18T01:06:53.517Z,981.28
2022-11-18T01:07:53.434Z,981.26
2022-11-18T01:08:53.462Z,981.24
2022-11-18T01:09:53.447Z,981.29
2022-11-18T01:10:53.465Z,981.25
2022-11-18T01:11:53.414Z,981.27
2022-11-18T01:12:54.611Z,981.31
2022-11-18T01:13:54.392Z,981.29
2022-11-18T01:14:53.408Z,981.34
2022-11-18T01:15:53.428Z,981.34
2022-11-18T01:16:53.388Z,981.35
2022-11-18T01:17:53.358Z,981.33
2022-11-18T01:18:53.369Z,981.41
2022-11-18T01:19:53.384Z,981.38
2022-11-18T01:20:53.330Z,981.39
2022-11-18T01:21:53.330Z,981.41
2022-11-18T01:22:53.328Z,981.38
2022-11-18T01:23:53.367Z,981.38
2022-11-18T01:24:53.372Z,981.45
2022-11-18T01:25:53.285Z,981.40
2022-11-18T01:26:53.283Z,981.37
2022-11-18T01:27:53.278Z,981.38
2022-11-18T01:28:53.293Z,981.39
2022-11-18T01:29:53.292Z,981.37
2022-11-18T01:30:53.256Z,981.37
2022-11-18T01:32:22.982Z,981.35
2022-11-18T01:32:55.256Z,981.36
2022-11-18T01:33:53.307Z,981.45
2022-11-18T01:34:53.238Z,981.35
2022-11-18T01:35:53.271Z,981.36
2022-11-18T01:36:53.239Z,981.38
2022-11-18T01:37:53.222Z,981.35
2022-11-18T01:38:53.196Z,981.35
2022-11-18T01:39:53.211Z,981.35
2022-11-18T01:40:53.206Z,981.36
2022-11-18T01:41:53.210Z,981.33
2022-11-18T01:42:53.314Z,981.33
2022-11-18T01:43:53.172Z,981.30
2022-11-18T01:44:53.186Z,981.32
2022-11-18T02:02:46.714Z,981.61
2022-11-18T02:03:46.713Z,981.56
2022-11-18T02:04:46.699Z,981.53
2022-11-18T02:05:47.827Z,981.58
2022-11-18T02:06:47.900Z,981.59
2022-11-18T02:07:47.798Z,981.59
2022-11-18T02:08:47.827Z,981.59
2022-11-18T02:09:47.813Z,981.63
2022-11-18T02:10:47.772Z,981.55
2022-11-18T02:11:47.838Z,981.60
2022-11-18T02:12:47.922Z,981.60
2022-11-18T02:13:47.871Z,981.58
2022-11-18T02:14:47.747Z,981.56
2022-11-18T02:15:47.761Z,981.56
2022-11-18T02:16:47.760Z,981.59
2022-11-18T02:17:47.742Z,981.57
2022-11-18T02:18:47.718Z,981.58
2022-11-18T02:19:47.705Z,981.58
2022-11-18T02:20:47.720Z,981.65
2022-11-18T02:21:47.695Z,981.68
2022-11-18T02:22:47.683Z,981.68
2022-11-18T02:23:47.737Z,981.69
2022-11-18T02:24:47.722Z,981.71
2022-11-18T02:25:47.668Z,981.68
2022-11-18T02:26:47.681Z,981.66
2022-11-18T02:27:47.647Z,981.62
2022-11-18T02:28:47.687Z,981.71
2022-11-18T02:29:47.656Z,981.67
2022-11-18T02:30:47.688Z,981.65
2022-11-18T02:31:47.653Z,981.71
2022-11-18T02:32:47.607Z,981.70
2022-11-18T02:33:47.634Z,981.70
2022-11-18T02:34:47.610Z,981.65
2022-11-18T02:35:47.643Z,981.59
2022-11-18T02:36:47.628Z,981.69
2022-11-18T02:37:47.680Z,981.58
2022-11-18T02:38:47.563Z,981.65
2022-11-18T02:39:47.566Z,981.59
2022-11-18T02:40:47.547Z,981.64
2022-11-18T02:41:47.585Z,981.61
2022-11-18T02:42:48.556Z,981.61
2022-11-18T02:43:47.545Z,981.59
2022-11-18T02:44:47.527Z,981.60
2022-11-18T02:45:47.556Z,981.57
2022-11-18T02:46:47.551Z,981.58
2022-11-18T02:48:19.425Z,981.62
2022-11-18T02:48:47.514Z,981.55
2022-11-18T02:49:47.509Z,981.57
2022-11-18T02:50:47.489Z,981.59
2022-11-18T02:51:48.480Z,981.55
2022-11-18T02:52:47.477Z,981.56
2022-11-18T02:53:47.483Z,981.60
2022-11-18T02:54:47.493Z,981.61
2022-11-18T02:55:47.472Z,981.61
2022-11-18T02:56:47.433Z,981.64
2022-11-18T02:57:47.432Z,981.65
2022-11-18T02:58:47.427Z,981.63
2022-11-18T02:59:47.401Z,981.62
2022-11-18T03:00:47.423Z,981.64
2022-11-18T03:01:47.447Z,981.65
2022-11-18T03:02:47.392Z,981.71
2022-11-18T03:03:47.387Z,981.64
2022-11-18T03:04:47.385Z,981.70
2022-11-18T03:05:47.379Z,981.68
2022-11-18T03:06:47.398Z,981.70
2022-11-18T03:07:47.372Z,981.75
2022-11-18T03:08:47.338Z,981.72
2022-11-18T03:09:47.388Z,981.73
2022-11-18T03:10:47.405Z,981.75
2022-11-18T03:11:47.386Z,981.76
2022-11-18T03:12:47.320Z,981.71
2022-11-18T03:13:47.348Z,981.79
2022-11-18T03:14:47.317Z,981.76
2022-11-18T03:15:47.287Z,981.78
2022-11-18T03:16:47.278Z,981.78
2022-11-18T03:17:48.321Z,981.80
2022-11-18T03:18:48.318Z,981.77
2022-11-18T03:19:47.272Z,981.79
2022-11-18T03:20:47.278Z,981.77
2022-11-18T03:21:47.253Z,981.82
2022-11-18T03:22:47.263Z,981.78
2022-11-18T03:23:47.240Z,981.89
2022-11-18T03:24:47.258Z,981.83
2022-11-18T03:25:47.203Z,981.83
2022-11-18T03:26:47.255Z,981.80
2022-11-18T03:27:47.284Z,981.81
2022-11-18T03:28:47.206Z,981.80
2022-11-18T03:29:47.219Z,981.84
2022-11-18T03:30:47.223Z,981.79
2022-11-18T03:31:47.227Z,981.86
2022-11-18T03:32:47.192Z,981.84
2022-11-18T03:33:47.164Z,981.91
2022-11-18T03:34:47.154Z,981.86
2022-11-18T03:35:47.152Z,981.88
2022-11-18T03:36:51.646Z,981.84
2022-11-18T03:37:48.147Z,981.86
2022-11-18T03:38:47.127Z,981.90
2022-11-18T03:39:47.132Z,981.88
2022-11-18T03:40:47.134Z,981.87
2022-11-18T03:41:47.105Z,981.92
2022-11-18T03:42:47.116Z,981.91
2022-11-18T03:43:47.097Z,981.88
2022-11-18T03:44:52.087Z,981.93
2022-11-18T03:45:49.082Z,981.91
2022-11-18T03:46:47.069Z,981.94
2022-11-18T04:02:57.587Z,982.24
2022-11-18T04:04:04.615Z,982.26
2022-11-18T04:04:57.575Z,982.23
2022-11-18T04:06:31.628Z,982.30
2022-11-18T04:06:58.779Z,982.29
2022-11-18T04:08:30.626Z,982.24
2022-11-18T04:09:30.576Z,982.18
2022-11-18T04:09:58.671Z,982.16
2022-11-18T04:10:58.728Z,982.22
2022-11-18T04:11:58.661Z,982.20
2022-11-18T04:13:04.707Z,982.26
2022-11-18T04:14:00.646Z,982.27
2022-11-18T04:14:58.636Z,982.29
2022-11-18T04:15:58.615Z,982.21
2022-11-18T04:16:58.613Z,982.24
2022-11-18T04:17:58.623Z,982.22
2022-11-18T04:19:04.390Z,982.29
2022-11-18T04:20:00.587Z,982.27
2022-11-18T04:21:30.500Z,982.24
2022-11-18T04:22:30.495Z,982.25
2022-11-18T04:23:30.475Z,982.28
2022-11-18T04:24:30.471Z,982.29
2022-11-18T04:25:30.478Z,982.33
2022-11-18T04:26:31.009Z,982.31
2022-11-18T04:26:58.634Z,982.34
2022-11-18T04:27:58.657Z,982.36
2022-11-18T04:28:58.552Z,982.34
2022-11-18T04:29:58.536Z,982.35
2022-11-18T04:30:58.533Z,982.33
2022-11-18T04:31:58.506Z,982.34
2022-11-18T04:32:58.527Z,982.38
2022-11-18T04:33:58.579Z,982.35
2022-11-18T04:34:58.534Z,982.41
2022-11-18T04:35:58.566Z,982.44
2022-11-18T04:36:58.526Z,982.42
2022-11-18T04:37:58.519Z,982.39
2022-11-18T04:38:58.518Z,982.40
2022-11-18T04:39:58.502Z,982.39
2022-11-18T04:40:58.489Z,982.36
2022-11-18T04:41:58.561Z,982.43
2022-11-18T04:42:58.480Z,982.33
2022-11-18T04:43:58.464Z,982.42
2022-11-18T04:44:58.456Z,982.45
2022-11-18T04:45:58.436Z,982.43
2022-11-18T04:46:58.451Z,982.48
2022-11-18T04:48:03.228Z,982.46
2022-11-18T04:49:00.496Z,982.38
2022-11-18T04:49:58.492Z,982.46
2022-11-18T04:50:58.437Z,982.44
2022-11-18T04:51:58.424Z,982.47
2022-11-18T04:52:58.345Z,982.45
2022-11-18T04:53:58.336Z,982.46
2022-11-18T04:54:58.404Z,982.45
2022-11-18T04:55:58.330Z,982.50
2022-11-18T04:56:58.386Z,982.46
2022-11-18T04:57:58.319Z,982.45
2022-11-18T04:58:58.327Z,982.46
2022-11-18T04:59:58.359Z,982.52
2022-11-18T05:00:58.417Z,982.46
2022-11-18T05:01:58.372Z,982.47
2022-11-18T05:03:30.190Z,982.46
2022-11-18T05:03:58.245Z,982.51
2022-11-18T05:04:58.251Z,982.47
2022-11-18T05:05:58.264Z,982.51
2022-11-18T05:06:58.311Z,982.49
2022-11-18T05:07:58.247Z,982.52
2022-11-18T05:08:58.250Z,982.53
2022-11-18T05:09:58.213Z,982.52
2022-11-18T05:10:58.195Z,982.55
2022-11-18T05:11:58.213Z,982.55
2022-11-18T05:12:58.213Z,982.53
2022-11-18T05:13:58.179Z,982.51
2022-11-18T05:15:30.101Z,982.53
2022-11-18T05:16:30.087Z,982.53
2022-11-18T05:16:58.173Z,982.55
2022-11-18T05:17:58.213Z,982.49
2022-11-18T05:18:58.149Z,982.55
2022-11-18T05:19:58.177Z,982.57
2022-11-18T05:20:58.143Z,982.52
2022-11-18T05:21:58.162Z,982.50
2022-11-18T05:22:58.218Z,982.57
2022-11-18T05:23:58.092Z,982.62
2022-11-18T05:24:58.120Z,982.57
2022-11-18T05:26:02.328Z,982.55
2022-11-18T05:26:59.149Z,982.58
2022-11-18T05:27:58.068Z,982.57
2022-11-18T05:28:58.085Z,982.56
2022-11-18T05:29:58.074Z,982.60
2022-11-18T05:30:58.044Z,982.58
2022-11-18T05:31:58.075Z,982.55
2022-11-18T05:32:58.061Z,982.55
2022-11-18T05:33:58.537Z,982.59
2022-11-18T05:34:58.010Z,982.61
2022-11-18T05:35:58.108Z,982.61
2022-11-18T05:36:57.994Z,982.58
2022-11-18T05:37:57.988Z,982.65
2022-11-18T05:38:58.022Z,982.63
2022-11-18T05:39:58.058Z,982.62
2022-11-18T05:40:58.031Z,982.61
2022-11-18T05:41:57.981Z,982.66
2022-11-18T05:42:57.960Z,982.63
2022-11-18T05:43:57.927Z,982.65
2022-11-18T05:44:58.898Z,982.65
2022-11-18T05:45:59.000Z,982.65
2022-11-18T05:46:57.917Z,982.69
2022-11-18T05:47:57.964Z,982.71
2022-11-18T05:48:57.975Z,982.74
2022-11-18T05:49:57.942Z,982.67
2022-11-18T05:50:57.931Z,982.75
2022-11-18T05:51:57.937Z,982.72
2022-11-18T05:52:57.911Z,982.74
2022-11-18T05:53:57.848Z,982.76
2022-11-18T05:54:57.889Z,982.76
2022-11-18T05:55:57.906Z,982.77
2022-11-18T05:56:57.894Z,982.74
2022-11-18T05:57:57.848Z,982.77
2022-11-18T05:58:57.831Z,982.71
2022-11-18T05:59:57.847Z,982.81
2022-11-18T06:00:57.849Z,982.73
2022-11-18T06:01:57.834Z,982.78
2022-11-18T06:02:57.851Z,982.81
2022-11-18T06:03:57.816Z,982.73
2022-11-18T06:04:57.806Z,982.76
2022-11-18T06:05:57.772Z,982.76
2022-11-18T06:06:57.869Z,982.75
2022-11-18T06:07:57.791Z,982.80
2022-11-18T06:08:57.751Z,982.83
2022-11-18T06:10:02.111Z,982.89
2022-11-18T06:10:59.770Z,982.93
2022-11-18T06:11:57.754Z,982.94
2022-11-18T06:12:57.859Z,982.92
2022-11-18T06:13:57.898Z,983.00
2022-11-18T06:14:57.723Z,982.96
2022-11-18T06:15:57.693Z,982.98
2022-11-18T06:16:57.687Z,982.99
2022-11-18T06:17:57.708Z,983.04
2022-11-18T06:18:58.473Z,983.08
2022-11-18T06:19:57.768Z,983.05
2022-11-18T06:20:57.892Z,983.05
2022-11-18T06:21:57.662Z,983.03
2022-11-18T06:22:57.680Z,983.03
2022-11-18T06:23:57.663Z,983.08
2022-11-18T06:24:57.685Z,983.09
2022-11-18T06:25:57.674Z,983.11
2022-11-18T06:26:57.609Z,983.11
2022-11-18T06:27:57.598Z,983.14
2022-11-18T06:28:57.603Z,983.13
2022-11-18T06:29:57.593Z,983.16
2022-11-18T06:30:57.576Z,983.21
2022-11-18T06:31:57.578Z,983.19
2022-11-18T06:32:57.616Z,983.22
2022-11-18T06:33:57.569Z,983.20
2022-11-18T06:34:57.588Z,983.23
2022-11-18T06:35:57.551Z,983.22
2022-11-18T06:36:57.533Z,983.20
2022-11-18T06:37:57.538Z,983.25
2022-11-18T06:38:57.535Z,983.26
2022-11-18T06:39:57.566Z,983.27
2022-11-18T06:40:57.498Z,983.27
2022-11-18T06:41:57.519Z,983.33
2022-11-18T06:42:57.464Z,983.32
2022-11-18T06:43:57.458Z,983.32
2022-11-18T06:44:58.542Z,983.34
2022-11-18T06:45:57.474Z,983.33
2022-11-18T06:46:57.471Z,983.37
2022-11-18T06:47:57.465Z,983.33
2022-11-18T06:48:57.463Z,983.38
2022-11-18T06:49:57.454Z,983.41
2022-11-18T06:50:57.455Z,983.42
2022-11-18T06:51:58.193Z,983.40
2022-11-18T06:52:57.457Z,983.39
2022-11-18T06:53:57.407Z,983.44
2022-11-18T06:54:57.434Z,983.44
2022-11-18T06:55:57.377Z,983.43
2022-11-18T06:56:57.425Z,983.46
2022-11-18T06:57:57.405Z,983.45
2022-11-18T06:58:57.421Z,983.45
2022-11-18T07:00:01.817Z,983.48
2022-11-18T07:00:59.515Z,983.47
2022-11-18T07:01:57.342Z,983.50
2022-11-18T07:03:29.251Z,983.52
2022-11-18T07:03:57.396Z,983.51
2022-11-18T07:04:57.315Z,983.52
2022-11-18T07:05:57.318Z,983.55
2022-11-18T07:06:57.387Z,983.55
2022-11-18T07:07:58.265Z,983.57
2022-11-18T07:08:57.289Z,983.58
2022-11-18T07:09:58.065Z,983.60
2022-11-18T07:10:57.248Z,983.68
2022-11-18T07:11:57.247Z,983.68
2022-11-18T07:12:57.321Z,983.67
2022-11-18T07:13:57.273Z,983.66
2022-11-18T07:14:57.260Z,983.70
2022-11-18T07:15:57.246Z,983.69
2022-11-18T07:16:57.217Z,983.69
2022-11-18T07:17:57.226Z,983.67
2022-11-18T07:18:57.265Z,983.71
2022-11-18T07:19:57.239Z,983.71
2022-11-18T07:20:57.179Z,983.72
2022-11-18T07:21:57.195Z,983.74
2022-11-18T07:22:57.216Z,983.74
2022-11-18T07:23:58.181Z,983.72
2022-11-18T07:24:57.193Z,983.74
2022-11-18T07:25:57.163Z,983.77
2022-11-18T07:26:57.209Z,983.80
2022-11-18T07:27:57.150Z,983.77
2022-11-18T07:28:57.122Z,983.77
2022-11-18T07:29:57.115Z,983.80
2022-11-18T07:30:57.182Z,983.76
2022-11-18T07:31:57.120Z,983.83
2022-11-18T07:32:57.125Z,983.81
2022-11-18T07:33:57.076Z,983.78
2022-11-18T07:34:57.084Z,983.78
2022-11-18T07:35:58.064Z,983.82
2022-11-18T07:36:57.075Z,983.85
2022-11-18T07:37:57.046Z,983.84
2022-11-18T07:38:57.059Z,983.86
2022-11-18T07:39:57.036Z,983.89
2022-11-18T07:40:57.037Z,983.87
2022-11-18T07:41:57.025Z,983.84
2022-11-18T07:42:57.025Z,983.92
2022-11-18T07:44:00.480Z,983.94
2022-11-18T07:44:57.995Z,983.96
2022-11-18T07:45:56.997Z,983.96
2022-11-18T07:46:57.039Z,984.00
2022-11-18T07:47:56.991Z,984.00
2022-11-18T07:48:56.969Z,983.96
2022-11-18T07:49:56.938Z,983.99
2022-11-18T07:50:56.964Z,984.04
2022-11-18T07:51:57.018Z,984.03
2022-11-18T07:52:56.945Z,984.05
2022-11-18T07:53:56.922Z,984.02
2022-11-18T07:54:56.924Z,984.07
2022-11-18T07:55:56.897Z,984.07
2022-11-18T07:56:56.940Z,984.11
2022-11-18T07:57:56.923Z,984.09
2022-11-18T07:58:56.911Z,984.10
2022-11-18T07:59:56.894Z,984.13
2022-11-18T08:00:56.855Z,984.11
2022-11-18T08:01:56.937Z,984.11
2022-11-18T08:02:56.856Z,984.10
2022-11-18T08:03:56.872Z,984.17
2022-11-18T08:04:56.854Z,984.09
2022-11-18T08:05:56.853Z,984.14
2022-11-18T08:06:56.978Z,984.14
2022-11-18T08:07:56.808Z,984.15
2022-11-18T08:08:56.831Z,984.13
2022-11-18T08:09:56.799Z,984.13
2022-11-18T08:10:56.817Z,984.15
2022-11-18T08:11:56.784Z,984.09
2022-11-18T08:12:56.795Z,984.15
2022-11-18T08:13:56.794Z,984.19
2022-11-18T08:14:56.790Z,984.11
2022-11-18T08:15:56.758Z,984.21
2022-11-18T08:16:56.780Z,984.19
2022-11-18T08:17:56.754Z,984.19
2022-11-18T08:18:56.739Z,984.23
2022-11-18T08:19:56.785Z,984.25
2022-11-18T08:20:56.740Z,984.24
2022-11-18T08:21:56.733Z,984.20
2022-11-18T08:22:56.701Z,984.25
2022-11-18T08:23:56.763Z,984.17
2022-11-18T08:24:56.700Z,984.19
2022-11-18T08:25:56.725Z,984.19
2022-11-18T08:26:56.675Z,984.21
2022-11-18T08:27:56.669Z,984.16
2022-11-18T08:28:56.756Z,984.19
2022-11-18T08:29:56.685Z,984.25
2022-11-18T08:30:56.662Z,984.22
2022-11-18T08:31:56.658Z,984.21
2022-11-18T08:32:56.639Z,984.24
2022-11-18T08:33:56.608Z,984.25
2022-11-18T08:34:56.627Z,984.22
2022-11-18T08:35:56.665Z,984.26
2022-11-18T08:36:56.645Z,984.25
2022-11-18T08:37:56.660Z,984.29
2022-11-18T08:38:56.616Z,984.30
2022-11-18T08:39:56.669Z,984.23
2022-11-18T08:40:56.609Z,984.27
2022-11-18T08:41:56.588Z,984.25
2022-11-18T08:42:57.531Z,984.23
2022-11-18T08:43:56.539Z,984.21
2022-11-18T08:44:56.560Z,984.23
2022-11-18T08:45:56.556Z,984.22
2022-11-18T08:46:56.584Z,984.17
2022-11-18T08:47:56.554Z,984.19
2022-11-18T08:48:56.514Z,984.27
2022-11-18T08:49:56.493Z,984.25
2022-11-18T08:50:56.642Z,984.24
2022-11-18T08:51:56.506Z,984.22
2022-11-18T08:52:56.474Z,984.26
2022-11-18T08:53:57.545Z,984.23
2022-11-18T08:54:56.455Z,984.26
2022-11-18T08:55:57.356Z,984.23
2022-11-18T08:56:57.441Z,984.27
2022-11-18T08:57:56.436Z,984.28
2022-11-18T08:58:56.491Z,984.24
2022-11-18T08:59:56.497Z,984.27
2022-11-18T09:00:56.445Z,984.32
2022-11-18T09:01:57.552Z,984.27
2022-11-18T09:02:56.447Z,984.30
2022-11-18T09:03:56.522Z,984.28
2022-11-18T09:04:56.395Z,984.32
2022-11-18T09:05:56.432Z,984.38
2022-11-18T09:06:56.448Z,984.37
2022-11-18T09:07:56.442Z,984.41
2022-11-18T09:08:56.356Z,984.43
2022-11-18T09:09:56.382Z,984.32
2022-11-18T09:10:56.322Z,984.43
2022-11-18T09:15:41.995Z,984.45
2022-11-18T09:16:16.067Z,984.46
2022-11-18T09:17:47.920Z,984.44
2022-11-18T09:18:47.981Z,984.52
2022-11-18T09:19:45.467Z,984.49
2022-11-18T09:20:47.987Z,984.45
2022-11-18T09:21:48.413Z,984.50
2022-11-18T09:22:47.931Z,984.53
2022-11-18T09:23:16.010Z,984.54
2022-11-18T09:24:16.717Z,984.49
2022-11-18T09:25:47.924Z,984.55
2022-11-18T09:26:15.981Z,984.60
2022-11-18T09:27:47.848Z,984.56
2022-11-18T09:28:47.892Z,984.61
2022-11-18T09:29:15.969Z,984.62
2022-11-18T09:30:16.728Z,984.61
2022-11-18T09:31:15.944Z,984.63
2022-11-18T09:32:16.813Z,984.61
2022-11-18T09:33:20.371Z,984.61
2022-11-18T09:34:17.288Z,984.59
2022-11-18T09:35:15.889Z,984.64
2022-11-18T09:36:15.926Z,984.68
2022-11-18T09:37:48.811Z,984.60
2022-11-18T09:38:15.856Z,984.66
2022-11-18T09:39:16.055Z,984.71
2022-11-18T09:40:15.885Z,984.69
2022-11-18T09:41:15.884Z,984.70
2022-11-18T09:42:15.875Z,984.70
2022-11-18T09:43:15.827Z,984.74
2022-11-18T09:44:15.869Z,984.75
2022-11-18T09:45:20.743Z,984.71
2022-11-18T09:46:17.827Z,984.75
2022-11-18T09:47:16.793Z,984.71
2022-11-18T09:48:15.795Z,984.79
2022-11-18T09:49:16.177Z,984.79
2022-11-18T09:50:47.167Z,984.73
2022-11-18T09:51:17.801Z,984.73
2022-11-18T09:52:15.746Z,984.64
2022-11-18T09:53:15.738Z,984.78
2022-11-18T09:54:16.287Z,984.76
2022-11-18T09:55:15.850Z,984.75
2022-11-18T09:56:15.867Z,984.80
2022-11-18T09:57:15.720Z,984.63
2022-11-18T09:58:15.698Z,984.68
2022-11-18T09:59:15.694Z,984.71
2022-11-18T10:00:15.728Z,984.68
2022-11-18T10:01:15.779Z,984.68
2022-11-18T10:02:15.727Z,984.69
2022-11-18T10:03:15.694Z,984.69
2022-11-18T10:04:15.943Z,984.68
2022-11-18T10:05:15.640Z,984.75
2022-11-18T10:06:47.643Z,984.76
2022-11-18T10:07:47.670Z,984.79
2022-11-18T10:08:15.737Z,984.81
2022-11-18T10:09:47.549Z,984.79
2022-11-18T10:10:15.680Z,984.84
2022-11-18T10:11:15.646Z,984.83
2022-11-18T10:12:47.528Z,984.88
2022-11-18T10:13:15.627Z,984.85
2022-11-18T10:14:15.916Z,984.89
2022-11-18T10:15:15.800Z,984.87
2022-11-18T10:16:15.643Z,984.89
2022-11-18T10:17:15.592Z,984.92
2022-11-18T10:18:26.450Z,984.89
2022-11-18T10:19:17.547Z,984.93
2022-11-18T10:20:16.538Z,984.88
2022-11-18T10:21:15.529Z,984.92
2022-11-18T10:22:22.688Z,984.95
2022-11-18T10:23:17.507Z,984.92
2022-11-18T10:24:15.834Z,984.95
2022-11-18T10:25:15.670Z,984.98
2022-11-18T10:26:15.497Z,985.04
2022-11-18T10:27:15.520Z,984.99
2022-11-18T10:28:15.512Z,985.03
2022-11-18T10:29:15.463Z,984.93
2022-11-18T10:30:16.470Z,984.96
2022-11-18T10:31:15.440Z,984.94
2022-11-18T10:32:15.474Z,984.89
2022-11-18T10:33:15.450Z,984.92
2022-11-18T10:34:15.679Z,984.92
2022-11-18T10:35:15.471Z,984.93
2022-11-18T10:36:15.411Z,984.96
2022-11-18T10:37:15.415Z,985.01
2022-11-18T10:38:15.423Z,984.99
2022-11-18T10:39:15.507Z,984.93
2022-11-18T10:40:15.395Z,984.94
2022-11-18T10:41:15.398Z,984.95
2022-11-18T10:42:15.379Z,984.92
2022-11-18T10:43:15.401Z,985.00
2022-11-18T10:44:15.422Z,984.99
2022-11-18T10:45:15.402Z,984.96
2022-11-18T10:46:15.331Z,985.05
2022-11-18T10:47:15.340Z,985.03
2022-11-18T10:48:15.303Z,985.06
2022-11-18T10:49:15.377Z,984.99
2022-11-18T10:50:15.304Z,984.99
2022-11-18T10:51:15.367Z,985.00
2022-11-18T10:52:16.302Z,985.02
2022-11-18T10:53:15.271Z,985.01
2022-11-18T10:54:15.847Z,984.99
2022-11-18T10:55:15.294Z,985.03
2022-11-18T10:56:15.275Z,985.02
2022-11-18T10:57:15.321Z,985.05
2022-11-18T10:58:15.297Z,985.01
2022-11-18T10:59:15.261Z,985.01
2022-11-18T11:00:15.270Z,985.01
2022-11-18T11:01:15.306Z,985.03
2022-11-18T11:02:15.333Z,984.97
2022-11-18T11:03:15.296Z,985.00
2022-11-18T11:04:15.637Z,985.09
2022-11-18T11:05:15.192Z,985.04
2022-11-18T11:06:15.195Z,984.99
2022-11-18T11:07:15.244Z,985.01
2022-11-18T11:08:35.693Z,985.03
2022-11-18T11:09:17.163Z,985.04
2022-11-18T11:10:15.236Z,985.08
2022-11-18T11:11:15.148Z,985.08
2022-11-18T11:12:15.167Z,985.15
2022-11-18T11:13:15.157Z,985.11
2022-11-18T11:14:15.165Z,985.15
2022-11-18T11:15:15.115Z,985.15
2022-11-18T11:16:15.129Z,985.28
2022-11-18T11:17:15.236Z,985.21
2022-11-18T11:18:15.125Z,985.32
2022-11-18T11:19:15.112Z,985.28
2022-11-18T11:20:15.093Z,985.28
2022-11-18T11:21:15.085Z,985.30
2022-11-18T11:22:15.119Z,985.29
2022-11-18T11:23:19.111Z,985.29
2022-11-18T11:24:21.393Z,985.30
2022-11-18T11:25:15.038Z,985.35
2022-11-18T11:28:17.522Z,985.37
2022-11-18T11:29:15.299Z,985.42
2022-11-18T11:30:16.211Z,985.40
2022-11-18T11:31:14.999Z,985.43
2022-11-18T11:32:15.032Z,985.41
2022-11-18T11:33:14.996Z,985.44
2022-11-18T11:34:14.970Z,985.40
2022-11-18T11:35:14.977Z,985.38
2022-11-18T11:36:14.989Z,985.48
2022-11-18T11:37:15.020Z,985.43
2022-11-18T11:38:15.053Z,985.43
2022-11-18T11:39:14.953Z,985.47
2022-11-18T11:40:15.006Z,985.50
2022-11-18T11:41:14.937Z,985.50
2022-11-18T11:42:14.981Z,985.50
2022-11-18T11:43:14.974Z,985.54
2022-11-18T11:44:14.934Z,985.55
2022-11-18T11:45:14.911Z,985.64
2022-11-18T11:46:14.898Z,985.54
2022-11-18T11:47:15.832Z,985.63
2022-11-18T11:48:14.886Z,985.63
2022-11-18T11:49:15.312Z,985.55
2022-11-18T11:50:14.967Z,985.67
2022-11-18T11:51:14.910Z,985.59
2022-11-18T11:52:14.883Z,985.62
2022-11-18T11:53:14.852Z,985.70
2022-11-18T11:54:14.867Z,985.70
2022-11-18T11:55:14.871Z,985.68
2022-11-18T11:56:21.131Z,985.65
2022-11-18T11:57:16.858Z,985.65
2022-11-18T11:58:14.878Z,985.73
2022-11-18T11:59:14.911Z,985.75
2022-11-18T12:00:14.899Z,985.73
2022-11-18T12:01:14.791Z,985.77
2022-11-18T12:02:15.770Z,985.74
2022-11-18T12:03:14.770Z,985.73
2022-11-18T12:04:14.752Z,985.76
2022-11-18T12:05:14.791Z,985.78
2022-11-18T12:06:14.752Z,985.78
2022-11-18T12:07:14.914Z,985.77
2022-11-18T12:08:14.715Z,985.76
2022-11-18T12:09:14.748Z,985.77
2022-11-18T12:10:14.744Z,985.71
2022-11-18T12:11:14.736Z,985.80
2022-11-18T12:12:14.683Z,985.71
2022-11-18T12:13:14.694Z,985.69
2022-11-18T12:14:14.748Z,985.68
2022-11-18T12:15:14.693Z,985.73
2022-11-18T12:16:14.650Z,985.78
2022-11-18T12:17:14.695Z,985.74
2022-11-18T12:18:14.658Z,985.76
2022-11-18T12:19:14.684Z,985.73
2022-11-18T12:20:14.607Z,985.70
2022-11-18T12:21:15.642Z,985.70
2022-11-18T12:22:14.625Z,985.72
2022-11-18T12:23:14.595Z,985.73
2022-11-18T12:24:14.589Z,985.76
2022-11-18T12:25:14.596Z,985.79
2022-11-18T12:26:14.620Z,985.77
2022-11-18T12:27:14.604Z,985.79
2022-11-18T12:28:14.851Z,985.80
2022-11-18T12:29:14.592Z,985.78
2022-11-18T12:30:14.554Z,985.81
2022-11-18T12:31:14.522Z,985.75
2022-11-18T12:32:14.562Z,985.79
2022-11-18T12:33:14.533Z,985.81
2022-11-18T12:34:14.549Z,985.78
2022-11-18T12:35:14.549Z,985.76
2022-11-18T12:36:14.523Z,985.76
2022-11-18T12:37:14.529Z,985.73
2022-11-18T12:38:14.577Z,985.77
2022-11-18T12:39:14.672Z,985.74
2022-11-18T12:40:14.574Z,985.79
2022-11-18T12:41:14.463Z,985.80
2022-11-18T12:42:14.451Z,985.74
2022-11-18T12:43:14.490Z,985.83
2022-11-18T12:44:14.470Z,985.87
2022-11-18T12:45:14.468Z,985.80
2022-11-18T12:46:14.417Z,985.85
2022-11-18T12:47:14.432Z,985.86
2022-11-18T12:48:14.400Z,985.87
2022-11-18T12:49:14.541Z,985.92
2022-11-18T12:50:14.510Z,985.88
2022-11-18T12:51:14.941Z,985.90
2022-11-18T12:52:14.412Z,985.92
2022-11-18T12:53:14.430Z,985.95
2022-11-18T12:54:14.391Z,985.94
2022-11-18T12:55:14.498Z,985.92
2022-11-18T12:56:14.350Z,985.90
2022-11-18T12:57:15.449Z,985.94
2022-11-18T12:58:14.391Z,985.95
2022-11-18T12:59:14.471Z,985.99
2022-11-18T13:00:15.282Z,986.00
2022-11-18T13:01:14.407Z,986.03
2022-11-18T13:02:14.321Z,986.01
2022-11-18T13:03:14.301Z,986.03
2022-11-18T13:04:14.291Z,986.03
2022-11-18T13:05:14.401Z,986.07
2022-11-18T13:06:14.307Z,986.11